Time;durP1;ratioP1;P1;durP2;ratioP2;P2;SDS_P1;SDS_P2;PMS_P1;PMS_P2;Temp;Humidity;BMP_temperature;BMP_pressure;BME280_temperature;BME280_humidity;BME280_pressure;Samples;Min_cycle;Max_cycle;Signal;HPM_P1;HPM_P2
2024/02/07 00:02:19;;;;;;;20.15;9.32;;;;;;;6.66;50.29;99259.19;6139662;23;20101;-96
2024/02/07 00:04:45;;;;;;;16.13;8.40;;;;;;;6.71;50.40;99269.16;6163927;23;20416;-96
2024/02/07 00:07:10;;;;;;;21.23;8.57;;;;;;;6.80;50.56;99283.72;6139493;23;20029;-96
2024/02/07 00:09:36;;;;;;;19.08;9.13;;;;;;;6.65;50.01;99260.25;6138993;23;20031;-96
2024/02/07 00:12:03;;;;;;;16.98;9.00;;;;;;;6.78;50.40;99272.47;6139235;23;20032;-96
2024/02/07 00:14:29;;;;;;;17.55;8.63;;;;;;;6.63;50.92;99262.34;6140446;23;20001;-96
2024/02/07 00:16:57;;;;;;;18.58;9.10;;;;;;;6.65;50.50;99256.75;6139743;23;20023;-96
2024/02/07 00:19:35;;;;;;;16.80;8.65;;;;;;;6.50;50.91;99248.53;6140909;23;19993;-96
2024/02/07 00:22:00;;;;;;;15.60;8.35;;;;;;;6.49;51.10;99269.09;6139627;23;20009;-96
2024/02/07 00:24:26;;;;;;;22.35;8.98;;;;;;;6.36;50.70;99253.38;6139581;23;20075;-96
2024/02/07 00:26:52;;;;;;;18.30;9.38;;;;;;;6.28;50.90;99267.97;6139250;23;20020;-96
2024/02/07 00:29:20;;;;;;;17.23;8.93;;;;;;;6.44;50.34;99263.69;6139290;23;20001;-96
2024/02/07 00:31:46;;;;;;;18.73;9.80;;;;;;;6.52;50.71;99255.25;6140203;23;20029;-96
2024/02/07 00:34:12;;;;;;;18.27;9.18;;;;;;;6.46;51.00;99245.53;6140887;23;19997;-96
2024/02/07 00:36:38;;;;;;;19.95;9.65;;;;;;;6.51;50.91;99272.34;6139854;23;20004;-96
2024/02/07 00:39:04;;;;;;;17.92;8.85;;;;;;;6.51;51.28;99263.50;6139363;23;20294;-96
2024/02/07 00:41:30;;;;;;;19.92;9.80;;;;;;;6.56;51.37;99258.25;6139838;23;20454;-96
2024/02/07 00:47:18;;;;;;;17.00;9.27;;;;;;;6.33;52.27;99267.22;6190721;23;20470;-96
2024/02/07 00:49:44;;;;;;;18.77;9.07;;;;;;;6.26;52.08;99267.38;6139683;23;20001;-95
2024/02/07 00:52:09;;;;;;;18.33;9.05;;;;;;;6.14;52.53;99277.34;6140213;23;20036;-95
2024/02/07 00:54:38;;;;;;;14.98;8.45;;;;;;;5.99;52.50;99265.34;6139318;23;20420;-95
2024/02/07 00:57:04;;;;;;;19.15;9.45;;;;;;;5.81;53.26;99247.66;6144137;23;20027;-96
2024/02/07 00:59:30;;;;;;;24.27;8.98;;;;;;;5.80;52.96;99255.91;6146288;23;20435;-96
2024/02/07 01:01:58;;;;;;;20.00;8.77;;;;;;;5.87;53.33;99269.91;6120226;23;20013;-96
2024/02/07 01:04:24;;;;;;;13.93;8.35;;;;;;;5.82;53.30;99259.94;6145629;23;19997;-96
2024/02/07 01:06:50;;;;;;;13.93;7.88;;;;;;;5.80;53.48;99267.38;6144887;23;20067;-96
2024/02/07 01:09:16;;;;;;;26.60;8.30;;;;;;;5.62;53.43;99236.34;6144233;23;20599;-96
2024/02/07 01:11:42;;;;;;;16.60;7.78;;;;;;;5.66;53.72;99252.69;6144676;23;20478;-96
2024/02/07 01:14:15;;;;;;;16.88;8.70;;;;;;;5.55;53.80;99240.22;6143486;23;20027;-96
2024/02/07 01:16:44;;;;;;;20.23;8.80;;;;;;;5.40;54.11;99232.72;6144935;23;19993;-96
2024/02/07 01:19:15;;;;;;;15.25;8.20;;;;;;;5.37;54.03;99247.34;6143534;23;20001;-96
2024/02/07 01:21:41;;;;;;;15.65;8.40;;;;;;;5.28;54.15;99226.63;6143623;23;20027;-96
2024/02/07 01:24:10;;;;;;;16.90;7.90;;;;;;;5.29;54.26;99258.41;6141731;23;20037;-96
2024/02/07 01:26:39;;;;;;;15.88;8.30;;;;;;;5.33;54.13;99232.03;6142586;23;20013;-96
2024/02/07 01:29:05;;;;;;;19.30;8.40;;;;;;;5.55;53.59;99248.22;6143817;23;20032;-96
2024/02/07 01:31:31;;;;;;;13.77;8.00;;;;;;;5.45;54.50;99254.97;6141966;23;20052;-96
2024/02/07 01:33:57;;;;;;;15.35;8.55;;;;;;;5.33;54.70;99248.06;6140892;23;20052;-95
2024/02/07 01:36:25;;;;;;;16.85;8.77;;;;;;;5.21;54.75;99232.09;6138878;23;20011;-95
2024/02/07 01:38:55;;;;;;;19.52;9.15;;;;;;;5.12;54.36;99225.50;6142146;23;20088;-96
2024/02/07 01:41:30;;;;;;;15.32;7.90;;;;;;;5.17;54.42;99223.75;6139277;23;20049;-94
2024/02/07 01:43:56;;;;;;;19.02;8.90;;;;;;;5.13;54.53;99222.59;6144362;23;20013;-96
2024/02/07 01:46:21;;;;;;;18.48;8.63;;;;;;;5.18;54.34;99220.00;6142242;23;20001;-95
2024/02/07 01:48:50;;;;;;;18.17;8.30;;;;;;;5.37;54.33;99230.53;6142109;23;20060;-96
2024/02/07 01:51:19;;;;;;;17.25;8.43;;;;;;;5.33;55.04;99232.84;6143725;23;20000;-96
2024/02/07 01:53:49;;;;;;;20.05;8.77;;;;;;;5.13;54.57;99205.78;6144235;23;20008;-96
2024/02/07 01:56:16;;;;;;;17.75;8.77;;;;;;;5.24;55.08;99229.75;6143153;23;20008;-96
2024/02/07 01:58:41;;;;;;;19.65;8.23;;;;;;;5.16;55.36;99218.63;6140172;23;20409;-96
2024/02/07 02:01:07;;;;;;;19.20;8.98;;;;;;;4.98;55.21;99215.09;6140272;23;20046;-96
2024/02/07 02:03:33;;;;;;;21.05;9.68;;;;;;;4.96;55.60;99219.84;6140260;23;20009;-96
2024/02/07 02:06:00;;;;;;;20.52;10.05;;;;;;;4.86;55.64;99208.97;6141443;23;19997;-96
2024/02/07 02:08:27;;;;;;;25.25;10.15;;;;;;;5.00;55.74;99231.69;6140342;23;20088;-96
2024/02/07 02:10:57;;;;;;;21.13;9.60;;;;;;;5.03;55.36;99219.72;6141210;23;20502;-96
2024/02/07 02:13:23;;;;;;;19.38;9.45;;;;;;;4.95;55.26;99212.88;6142078;23;20005;-96
2024/02/07 02:15:49;;;;;;;20.58;9.48;;;;;;;4.94;55.39;99205.94;6144628;23;20004;-96
2024/02/07 02:18:14;;;;;;;22.88;10.13;;;;;;;5.02;56.03;99231.44;6140825;23;20088;-96
2024/02/07 02:20:41;;;;;;;16.65;8.75;;;;;;;5.16;55.49;99234.66;6138915;23;20005;-96
2024/02/07 02:23:31;;;;;;;23.08;9.48;;;;;;;5.17;55.33;99206.94;6139516;23;20013;-96
2024/02/07 02:26:18;;;;;;;19.15;9.48;;;;;;;5.35;55.48;99227.28;6163811;23;20001;-96
2024/02/07 02:29:26;;;;;;;23.75;10.02;;;;;;;5.05;55.50;99202.41;6163986;23;20048;-96
2024/02/07 02:31:54;;;;;;;19.30;8.98;;;;;;;5.16;55.31;99197.28;6162918;23;19996;-96
2024/02/07 02:34:20;;;;;;;23.92;10.02;;;;;;;5.35;55.21;99216.59;6139420;23;20040;-96
2024/02/07 02:36:46;;;;;;;17.60;9.52;;;;;;;5.45;55.30;99227.47;6139831;23;20020;-96
2024/02/07 02:39:14;;;;;;;22.40;9.25;;;;;;;5.49;55.61;99222.47;6139467;23;20001;-96
2024/02/07 02:41:40;;;;;;;16.60;9.15;;;;;;;5.24;55.13;99207.59;6140863;23;20013;-96
2024/02/07 02:44:06;;;;;;;22.10;8.48;;;;;;;5.15;55.05;99206.34;6139214;23;20009;-96
2024/02/07 02:46:31;;;;;;;21.13;8.98;;;;;;;5.10;55.85;99209.72;6140812;23;20064;-96
2024/02/07 02:48:57;;;;;;;20.48;10.20;;;;;;;5.01;55.48;99205.81;6139544;23;20148;-96
2024/02/07 02:51:25;;;;;;;20.58;9.40;;;;;;;5.00;55.59;99212.16;6141109;23;20079;-96
2024/02/07 02:53:51;;;;;;;16.42;8.85;;;;;;;5.12;55.48;99222.81;6140316;23;20083;-96
2024/02/07 02:56:17;;;;;;;19.88;8.55;;;;;;;5.25;55.49;99222.56;6140769;23;20053;-96
2024/02/07 02:58:46;;;;;;;21.17;8.85;;;;;;;5.21;54.35;99200.06;6139689;23;20088;-96
2024/02/07 03:01:15;;;;;;;19.58;8.20;;;;;;;5.42;54.44;99220.75;6141246;23;20418;-96
2024/02/07 03:03:53;;;;;;;18.75;9.52;;;;;;;5.22;54.64;99215.03;6141744;23;20459;-96
2024/02/07 03:06:28;;;;;;;24.33;9.25;;;;;;;5.00;55.87;99221.00;6143544;23;20004;-96
2024/02/07 03:09:06;;;;;;;18.77;9.07;;;;;;;5.01;56.21;99232.47;6142686;23;20008;-96
2024/02/07 03:11:32;;;;;;;18.55;8.90;;;;;;;4.93;56.08;99233.66;6143305;23;20040;-96
2024/02/07 03:13:57;;;;;;;18.77;8.23;;;;;;;4.92;55.86;99240.06;6139346;23;20008;-96
2024/02/07 03:16:24;;;;;;;23.25;8.55;;;;;;;4.88;56.75;99238.91;6141560;23;20072;-96
2024/02/07 03:18:50;;;;;;;19.83;8.63;;;;;;;4.75;55.66;99223.13;6140837;23;20333;-95
2024/02/07 03:21:15;;;;;;;18.15;8.77;;;;;;;4.72;56.61;99215.59;6140659;23;20124;-96
2024/02/07 03:23:41;;;;;;;18.50;8.32;;;;;;;4.76;56.24;99219.44;6138630;23;20028;-96
2024/02/07 03:26:09;;;;;;;26.38;14.35;;;;;;;4.81;56.39;99235.53;6138743;23;20084;-96
2024/02/07 03:28:34;;;;;;;20.60;10.45;;;;;;;4.86;56.17;99240.97;6164208;23;20502;-96
2024/02/07 03:31:00;;;;;;;21.83;9.05;;;;;;;4.61;56.36;99215.38;6139481;23;20001;-96
2024/02/07 03:33:26;;;;;;;15.75;8.48;;;;;;;4.78;56.22;99225.34;6139387;23;20092;-96
2024/02/07 03:35:54;;;;;;;15.18;8.68;;;;;;;4.63;56.70;99215.16;6140219;23;20005;-96
2024/02/07 03:38:24;;;;;;;17.70;8.35;;;;;;;4.62;57.10;99216.19;6139550;23;20008;-96
2024/02/07 03:40:49;;;;;;;23.02;9.15;;;;;;;4.56;56.69;99225.91;6139555;23;20001;-96
2024/02/07 03:43:15;;;;;;;18.65;9.48;;;;;;;4.47;57.23;99210.53;6138241;23;20055;-96
2024/02/07 03:45:42;;;;;;;17.15;9.05;;;;;;;4.59;56.25;99217.47;6139901;23;20459;-96
2024/02/07 03:48:13;;;;;;;15.32;8.82;;;;;;;4.48;56.14;99183.59;6140400;23;20005;-96
2024/02/07 03:50:40;;;;;;;16.20;8.88;;;;;;;4.47;56.86;99210.53;6140690;23;20005;-96
2024/02/07 03:53:07;;;;;;;20.70;9.05;;;;;;;4.44;57.21;99225.94;6138549;23;19997;-96
2024/02/07 03:55:35;;;;;;;25.98;9.50;;;;;;;4.42;57.55;99221.84;6141478;23;20001;-96
2024/02/07 03:58:01;;;;;;;19.67;8.73;;;;;;;4.39;57.25;99223.13;6139801;23;20052;-96
2024/02/07 04:00:27;;;;;;;20.30;9.23;;;;;;;4.23;57.95;99211.34;6140105;23;20004;-96
2024/02/07 04:02:53;;;;;;;20.65;9.05;;;;;;;4.34;57.58;99224.91;6139189;23;20067;-96
2024/02/07 04:05:19;;;;;;;12.93;8.23;;;;;;;4.21;58.57;99216.09;6141442;23;20004;-96
2024/02/07 04:07:44;;;;;;;18.30;9.23;;;;;;;4.20;58.13;99210.97;6140810;23;20442;-95
2024/02/07 04:10:11;;;;;;;23.42;9.65;;;;;;;4.34;58.11;99211.56;6139246;23;19997;-96
2024/02/07 05:15:40;;;;;;;21.17;9.32;;;;;;;4.02;57.78;99211.88;6169265;23;20036;-96
2024/02/07 05:18:05;;;;;;;20.08;9.38;;;;;;;4.03;58.09;99226.81;6138580;23;20009;-96
2024/02/07 05:20:31;;;;;;;21.10;9.45;;;;;;;4.10;57.77;99213.41;6141161;23;20072;-96
2024/02/07 05:22:57;;;;;;;17.65;9.43;;;;;;;4.27;57.26;99205.53;6139588;23;20406;-95
2024/02/07 05:25:23;;;;;;;33.50;16.70;;;;;;;4.29;57.53;99198.13;6140785;23;19997;-95
2024/02/07 05:27:49;;;;;;;28.88;10.95;;;;;;;4.41;57.01;99202.41;6139428;23;20450;-96
2024/02/07 05:30:16;;;;;;;28.25;10.10;;;;;;;4.52;57.41;99197.28;6164836;23;20028;-96
2024/02/07 05:32:42;;;;;;;21.70;10.10;;;;;;;4.50;57.32;99183.38;6163721;23;19997;-96
2024/02/07 05:35:08;;;;;;;24.92;10.27;;;;;;;4.49;57.38;99195.91;6137800;23;20001;-96
2024/02/07 05:37:37;;;;;;;28.55;14.95;;;;;;;4.44;58.01;99215.28;6163313;23;20063;-95
2024/02/07 05:40:06;;;;;;;18.95;10.60;;;;;;;4.27;58.08;99200.19;6138138;23;20028;-95
2024/02/07 05:42:43;;;;;;;40.08;29.00;;;;;;;4.27;58.25;99211.66;6138646;23;20017;-95
2024/02/07 05:45:16;;;;;;;30.98;11.60;;;;;;;4.13;58.27;99192.44;6138209;23;20025;-96
2024/02/07 05:47:51;;;;;;;26.55;11.73;;;;;;;4.14;58.15;99212.69;6167337;23;20051;-96
2024/02/07 05:50:18;;;;;;;41.33;11.38;;;;;;;3.99;58.29;99199.03;6112597;23;20005;-96
2024/02/07 05:52:46;;;;;;;34.15;12.73;;;;;;;4.07;58.02;99201.34;6110116;23;20416;-96
2024/02/07 05:55:15;;;;;;;25.83;10.57;;;;;;;4.04;58.91;99215.13;6113221;23;20063;-96
2024/02/07 05:57:47;;;;;;;22.65;11.57;;;;;;;4.03;58.57;99222.31;6137116;23;20021;-96
2024/02/07 06:00:16;;;;;;;25.90;11.60;;;;;;;3.93;58.59;99205.25;6136391;23;20001;-96
2024/02/07 06:02:44;;;;;;;26.70;11.10;;;;;;;4.02;59.02;99230.53;6135666;23;20010;-96
2024/02/07 06:05:14;;;;;;;25.00;11.90;;;;;;;4.04;58.02;99245.22;6139015;23;20454;-95
2024/02/07 06:07:45;;;;;;;24.77;12.27;;;;;;;4.21;58.46;99253.38;6139942;23;19990;-96
2024/02/07 06:20:34;;;;;;;34.88;13.23;;;;;;;4.50;57.96;99221.50;6197165;22;20024;-96
2024/02/07 06:23:05;;;;;;;44.33;12.93;;;;;;;4.65;57.61;99247.72;6119550;23;20359;-96
2024/02/07 06:25:33;;;;;;;31.80;13.70;;;;;;;4.39;57.83;99223.13;6121103;23;20348;-94
2024/02/07 06:28:01;;;;;;;27.13;14.00;;;;;;;4.49;57.39;99206.56;6119366;23;20352;-96
2024/02/07 06:30:30;;;;;;;25.15;11.30;;;;;;;4.49;57.96;99219.09;6144540;23;20027;-96
2024/02/07 06:32:56;;;;;;;38.25;13.02;;;;;;;4.58;57.49;99223.81;6140841;23;20428;-95
2024/02/07 06:35:22;;;;;;;27.70;13.15;;;;;;;4.50;57.79;99229.50;6117117;23;20007;-96
2024/02/07 06:38:01;;;;;;;25.20;11.57;;;;;;;4.57;57.72;99200.88;6120750;23;20060;-96
2024/02/07 06:40:30;;;;;;;37.97;12.32;;;;;;;4.87;57.50;99218.59;6081418;23;20013;-95
2024/02/07 06:42:57;;;;;;;30.40;12.98;;;;;;;4.86;57.33;99208.97;6034127;23;20006;-95
2024/02/07 06:53:51;;;;;;;25.08;10.82;;;;;;;5.16;56.46;99235.44;6203140;22;20071;-96
2024/02/07 06:56:17;;;;;;;25.52;11.60;;;;;;;5.18;56.16;99213.88;6210060;23;20021;-96
2024/02/07 06:59:13;;;;;;;32.72;13.90;;;;;;;5.17;56.69;99205.06;6174531;23;20145;-96
2024/02/07 07:01:42;;;;;;;45.00;23.98;;;;;;;5.36;56.75;99219.03;6221557;23;20420;-94
2024/02/07 07:04:09;;;;;;;34.70;14.80;;;;;;;5.50;55.35;99208.06;6196800;23;20004;-95
2024/02/07 07:06:43;;;;;;;32.15;15.15;;;;;;;5.69;55.40;99224.72;6205272;23;20003;-96
2024/02/07 07:10:17;;;;;;;38.90;16.10;;;;;;;6.01;54.97;99235.72;6096120;23;20011;-96
2024/02/07 07:12:43;;;;;;;33.58;14.10;;;;;;;6.11;54.07;99208.34;6078668;23;19998;-92
2024/02/07 07:15:13;;;;;;;29.23;11.32;;;;;;;6.39;53.76;99226.13;6097240;23;20138;-94
2024/02/07 07:26:23;;;;;;;39.45;16.50;;;;;;;6.84;52.61;99207.25;6201156;22;20053;-96
2024/02/07 07:29:13;;;;;;;42.35;14.30;;;;;;;6.96;52.25;99206.34;6124612;23;20059;-96
2024/02/07 07:31:40;;;;;;;35.58;16.00;;;;;;;6.92;51.98;99189.97;6178872;22;20103;-94
2024/02/07 07:36:41;;;;;;;29.48;11.77;;;;;;;7.29;51.06;99197.34;6193970;22;20423;-95
2024/02/07 08:10:03;;;;;;;60.85;21.92;;;;;;;8.72;47.15;99160.16;6192172;22;20055;-96
2024/02/07 09:05:04;;;;;;;26.98;10.60;;;;;;;11.39;41.25;99151.94;6199098;22;20102;-96
2024/02/07 09:07:33;;;;;;;27.02;11.18;;;;;;;11.42;41.29;99132.53;6126251;23;20023;-94
2024/02/07 09:10:30;;;;;;;;;;;;;;;;;;;;;
2024/02/07 09:12:59;;;;;;;16.75;9.93;;;;;;;11.70;41.36;99136.34;6177312;23;20024;-95
2024/02/07 09:15:53;;;;;;;26.95;10.43;;;;;;;11.76;41.14;99121.72;6122493;23;20083;-96
2024/02/07 09:31:30;;;;;;;;;;;;;;;;;;;;;
2024/02/07 09:37:02;;;;;;;35.03;13.13;;;;;;;13.62;39.14;99094.97;6230211;22;20458;-95
2024/02/07 09:39:47;;;;;;;;;;;;;;;;;;;;;
2024/02/07 09:42:22;;;;;;;28.58;17.23;;;;;;;14.02;38.61;99094.59;6195149;22;20032;-96
2024/02/07 09:48:50;;;;;;;20.85;13.18;;;;;;;14.31;37.79;99083.50;6234352;22;20067;-96
2024/02/07 10:15:24;;;;;;;14.57;7.10;;;;;;;15.02;36.65;99043.28;6191237;23;20016;-96
2024/02/07 10:17:50;;;;;;;19.00;9.02;;;;;;;15.07;36.79;99031.53;6237797;22;20467;-92
2024/02/07 11:04:12;;;;;;;9.30;5.13;;;;;;;16.82;33.31;98927.16;6159403;23;20022;-95
2024/02/07 11:06:38;;;;;;;14.65;5.15;;;;;;;16.98;33.64;98938.38;6107485;23;20001;-94
2024/02/07 11:10:08;;;;;;;;;;;;;;;;;;;;;
2024/02/07 11:16:24;;;;;;;;;;;;;;;17.09;33.38;98934.97;6119865;23;20006;-95
2024/02/07 11:47:12;;;;;;;9.07;5.28;;;;;;;16.42;35.05;98871.03;6023187;23;20368;-95
2024/02/07 11:52:54;;;;;;;9.55;4.80;;;;;;;16.54;35.15;98883.97;6195348;23;20017;-95
2024/02/07 11:55:38;;;;;;;;;;;;;;;16.66;34.96;98891.47;6151752;23;20092;-96
2024/02/07 12:04:38;;;;;;;;;;;;;;;;;;;;;
2024/02/07 12:07:20;;;;;;;8.40;5.35;;;;;;;16.47;35.11;98867.34;6171330;23;20029;-95
2024/02/07 12:09:57;;;;;;;13.05;5.55;;;;;;;16.36;35.14;98851.34;6121780;23;20084;-96
2024/02/07 12:44:07;;;;;;;17.63;5.53;;;;;;;16.46;35.00;98808.69;6237050;22;20029;-96
2024/02/07 12:46:52;;;;;;;10.20;4.68;;;;;;;16.66;34.44;98815.34;6147596;23;20020;-94
2024/02/07 12:49:27;;;;;;;7.53;4.78;;;;;;;16.67;34.81;98812.31;6170402;23;20092;-95
2024/02/07 12:51:57;;;;;;;6.40;4.28;;;;;;;16.56;34.94;98806.44;6153099;23;20011;-96
2024/02/07 12:54:26;;;;;;;6.95;4.43;;;;;;;16.47;35.00;98786.59;6147476;23;20004;-95
2024/02/07 13:07:32;;;;;;;7.47;4.43;;;;;;;16.67;34.44;98796.00;6193864;22;20013;-96
2024/02/07 14:04:27;;;;;;;10.98;4.20;;;;;;;16.36;35.14;98745.38;6174408;22;20032;-94
2024/02/07 14:06:55;;;;;;;9.65;4.00;;;;;;;16.49;35.06;98759.91;6138500;23;20009;-94
2024/02/07 14:09:49;;;;;;;6.32;3.88;;;;;;;16.46;34.96;98751.63;6113918;23;20012;-95
2024/02/07 14:12:45;;;;;;;7.78;4.00;;;;;;;16.28;35.35;98735.31;6106248;23;20020;-96
2024/02/07 14:15:13;;;;;;;7.35;3.72;;;;;;;16.19;35.43;98726.41;6091596;23;20020;-96
2024/02/07 14:17:54;;;;;;;7.60;4.03;;;;;;;16.27;35.50;98743.78;6115264;23;20006;-94
2024/02/07 14:20:25;;;;;;;19.38;8.23;;;;;;;16.30;35.44;98743.94;6093416;23;20006;-95
2024/02/07 14:26:06;;;;;;;7.35;3.95;;;;;;;16.21;36.00;98737.75;6122061;23;20012;-93
2024/02/07 14:28:35;;;;;;;5.55;3.90;;;;;;;16.26;35.51;98736.78;6060182;23;20013;-96
2024/02/07 14:31:04;;;;;;;9.35;4.78;;;;;;;16.20;35.52;98732.63;6061522;23;20005;-96
2024/02/07 14:37:15;;;;;;;6.03;3.95;;;;;;;16.03;35.79;98715.22;6053848;23;20003;-96
2024/02/07 14:39:43;;;;;;;7.65;4.15;;;;;;;15.96;35.95;98723.88;6046540;23;20012;-96
2024/02/07 14:42:18;;;;;;;8.00;4.50;;;;;;;15.96;36.08;98721.16;6062573;23;20032;-96
2024/02/07 14:44:44;;;;;;;5.75;3.88;;;;;;;15.87;36.31;98725.75;6085086;23;20012;-96
2024/02/07 14:47:41;;;;;;;6.93;4.47;;;;;;;15.79;36.27;98712.97;6095003;23;20002;-96
2024/02/07 14:50:54;;;;;;;10.68;3.95;;;;;;;15.86;36.60;98729.59;6110945;23;20080;-96
2024/02/07 14:53:05;;;;;;;5.95;4.07;;;;;;;15.73;36.68;98717.00;6090185;23;19998;-95
2024/02/07 14:55:32;;;;;;;9.23;4.70;;;;;;;15.67;36.95;98716.31;6070052;23;20002;-95
2024/02/07 15:01:18;;;;;;;10.77;5.22;;;;;;;15.55;37.53;98713.44;6097542;23;20033;-96
2024/02/07 15:03:56;;;;;;;10.43;4.75;;;;;;;15.56;37.42;98742.97;6111527;23;20005;-96
2024/02/07 15:06:54;;;;;;;7.90;4.80;;;;;;;15.44;37.84;98747.41;6147306;23;20027;-96
2024/02/07 15:10:34;;;;;;;19.42;6.22;;;;;;;15.22;38.49;98726.63;6142193;23;20040;-96
2024/02/07 15:19:32;;;;;;;;;;;;;;;;;;;;;
2024/02/07 15:22:31;;;;;;;9.15;4.53;;;;;;;14.86;38.67;98717.56;6184127;23;20031;-96
2024/02/07 15:32:09;;;;;;;;;;;;;;;;;;;;;
2024/02/07 15:35:21;;;;;;;7.28;4.30;;;;;;;14.56;39.04;98762.50;6188328;23;20054;-96
2024/02/07 15:42:04;;;;;;;10.65;5.50;;;;;;;14.42;39.45;98767.16;6023519;23;20079;-96
2024/02/07 15:44:32;;;;;;;11.68;6.60;;;;;;;14.27;39.61;98762.94;6113034;23;20518;-96
2024/02/07 15:47:12;;;;;;;18.85;8.55;;;;;;;14.20;40.06;98746.31;6140667;23;20005;-95
2024/02/07 15:49:45;;;;;;;12.68;6.22;;;;;;;14.24;39.89;98763.56;6144594;23;20013;-96
2024/02/07 15:52:14;;;;;;;10.52;6.78;;;;;;;14.15;40.86;98767.00;6165535;23;20012;-96
2024/02/07 15:54:39;;;;;;;16.05;9.23;;;;;;;14.18;41.19;98781.03;6143279;23;20392;-95
2024/02/07 15:57:20;;;;;;;16.13;9.15;;;;;;;14.09;41.47;98764.69;6148096;23;20005;-95
2024/02/07 16:00:15;;;;;;;18.88;7.13;;;;;;;13.94;41.35;98755.03;6170975;23;20052;-96
2024/02/07 16:02:44;;;;;;;23.98;7.97;;;;;;;13.86;41.78;98766.59;6148367;23;20061;-96
2024/02/07 16:08:51;;;;;;;16.33;7.38;;;;;;;13.60;42.62;98775.25;6143703;23;20109;-96
2024/02/07 16:53:17;;;;;;;;;;;;;;;;;;;;;
2024/02/07 17:40:23;;;;;;;38.47;19.60;;;;;;;11.64;48.57;98824.66;6205396;23;20012;-96
2024/02/07 17:42:49;;;;;;;35.42;18.80;;;;;;;11.64;48.68;98821.94;6134716;23;20012;-96
2024/02/07 17:45:56;;;;;;;48.72;19.27;;;;;;;11.49;49.13;98814.88;6130871;23;20060;-96
2024/02/07 18:56:55;;;;;;;33.47;16.23;;;;;;;10.04;52.31;98872.88;6209828;22;20013;-96
2024/02/07 18:59:26;;;;;;;32.28;15.45;;;;;;;10.02;52.54;98865.13;6164974;23;20037;-96
2024/02/07 19:01:52;;;;;;;86.10;40.45;;;;;;;10.08;52.34;98871.25;6142538;23;20089;-96
2024/02/07 19:04:18;;;;;;;38.08;17.55;;;;;;;10.04;52.56;98864.81;6141560;23;20017;-96
2024/02/07 19:06:46;;;;;;;31.13;15.68;;;;;;;10.06;53.04;98866.13;6142295;23;20001;-96
2024/02/07 19:09:28;;;;;;;48.47;20.20;;;;;;;9.93;53.20;98853.31;6143236;23;20132;-96
2024/02/07 19:11:55;;;;;;;42.63;20.33;;;;;;;10.09;53.61;98867.50;6144608;23;20001;-96
2024/02/07 19:14:25;;;;;;;39.00;19.60;;;;;;;10.00;53.52;98863.75;6144123;23;19993;-96
2024/02/07 19:16:57;;;;;;;38.95;19.55;;;;;;;9.87;53.81;98857.91;6143757;23;20000;-96
2024/02/07 19:19:28;;;;;;;35.38;16.73;;;;;;;9.76;53.82;98859.03;6143687;23;20321;-96
2024/02/07 19:21:57;;;;;;;35.63;15.77;;;;;;;9.73;53.90;98864.16;6143168;23;20005;-96
2024/02/07 19:24:28;;;;;;;36.75;17.33;;;;;;;9.72;54.03;98857.97;6142560;23;20001;-96
2024/02/07 19:26:54;;;;;;;31.67;14.73;;;;;;;9.68;54.33;98868.47;6144980;23;20435;-96
2024/02/07 19:29:23;;;;;;;31.80;14.20;;;;;;;9.63;53.96;98865.00;6141795;23;20005;-96
2024/02/07 19:31:49;;;;;;;29.63;14.88;;;;;;;9.60;54.20;98865.56;6142236;23;20001;-96
2024/02/07 19:34:17;;;;;;;26.52;13.88;;;;;;;9.53;54.74;98848.94;6157503;22;20008;-96
2024/02/07 19:36:43;;;;;;;36.83;14.32;;;;;;;9.50;54.63;98861.00;6143761;23;20009;-96
2024/02/07 19:39:12;;;;;;;31.42;14.77;;;;;;;9.42;54.23;98843.59;6119581;23;20007;-96
2024/02/07 19:41:38;;;;;;;30.38;12.93;;;;;;;9.42;54.74;98843.59;6122873;23;20005;-96
2024/02/07 19:44:04;;;;;;;27.55;13.45;;;;;;;9.60;54.44;98866.34;6118876;23;20348;-96
2024/02/07 19:46:30;;;;;;;27.10;11.88;;;;;;;9.48;54.44;98847.88;6119252;23;20001;-96
2024/02/07 19:49:03;;;;;;;41.72;16.75;;;;;;;9.37;54.24;98843.59;6146522;23;19997;-95
2024/02/07 19:51:29;;;;;;;29.73;14.77;;;;;;;9.35;54.75;98832.31;6144741;23;19997;-96
2024/02/07 19:53:58;;;;;;;31.02;14.20;;;;;;;9.31;54.94;98839.31;6118300;23;20023;-96
2024/02/07 19:56:23;;;;;;;34.40;13.52;;;;;;;9.34;54.92;98846.84;6120019;23;20001;-96
2024/02/07 19:58:52;;;;;;;27.63;14.52;;;;;;;9.39;54.81;98844.13;6118665;23;20001;-96
2024/02/07 20:01:19;;;;;;;29.48;14.20;;;;;;;9.34;55.36;98829.88;6120410;23;19985;-96
2024/02/07 20:03:47;;;;;;;30.13;14.52;;;;;;;9.49;54.97;98848.66;6117107;23;20009;-96
2024/02/07 20:06:16;;;;;;;39.45;14.10;;;;;;;9.41;55.14;98835.78;6118746;23;20001;-95
2024/02/07 20:08:42;;;;;;;25.20;13.95;;;;;;;9.34;54.92;98841.47;6117536;23;20000;-96
2024/02/07 20:11:10;;;;;;;25.02;13.63;;;;;;;9.39;55.39;98860.25;6118730;23;20005;-96
2024/02/07 20:13:39;;;;;;;29.08;13.18;;;;;;;9.20;55.45;98853.84;6119105;23;20081;-96
2024/02/07 20:16:08;;;;;;;25.75;13.73;;;;;;;8.90;55.45;98842.91;6120312;23;20019;-96
2024/02/07 20:18:34;;;;;;;26.88;13.02;;;;;;;8.88;55.50;98838.84;6121673;23;20088;-96
2024/02/07 20:20:59;;;;;;;22.05;11.57;;;;;;;9.01;55.67;98854.44;6118196;23;20527;-96
2024/02/07 20:23:25;;;;;;;29.33;13.20;;;;;;;8.96;55.82;98830.25;6120065;23;20047;-96
2024/02/07 20:25:51;;;;;;;40.05;17.92;;;;;;;9.07;55.92;98860.59;6118735;23;19997;-96
2024/02/07 20:28:19;;;;;;;35.55;17.20;;;;;;;8.99;55.96;98837.78;6118713;23;20316;-96
2024/02/07 20:30:53;;;;;;;34.45;15.48;;;;;;;8.88;56.44;98837.00;6119458;23;20001;-95
2024/02/07 20:33:19;;;;;;;32.05;16.65;;;;;;;9.02;56.50;98858.69;6123097;23;20004;-96
2024/02/07 20:35:48;;;;;;;30.85;16.05;;;;;;;8.93;56.55;98849.59;6119836;23;20021;-96
2024/02/07 20:38:17;;;;;;;34.20;14.75;;;;;;;8.86;56.46;98843.69;6119189;23;20155;-96
2024/02/07 20:40:45;;;;;;;32.03;15.00;;;;;;;8.85;56.69;98860.88;6117630;23;20025;-96
2024/02/07 20:43:14;;;;;;;26.08;15.25;;;;;;;8.74;56.80;98856.59;6118013;23;20011;-96
2024/02/07 20:45:40;;;;;;;30.00;15.30;;;;;;;8.75;57.02;98859.00;6119419;23;20008;-96
2024/02/07 20:48:19;;;;;;;36.63;15.00;;;;;;;8.61;57.32;98841.81;6117583;23;20489;-96
2024/02/07 20:50:48;;;;;;;26.77;14.05;;;;;;;8.65;57.29;98859.81;6142796;23;20008;-96
2024/02/07 20:53:19;;;;;;;30.40;14.05;;;;;;;8.68;56.93;98853.91;6118798;23;20051;-96
2024/02/07 20:55:45;;;;;;;31.65;13.95;;;;;;;8.61;56.99;98842.66;6140806;23;20032;-95
2024/02/07 20:58:12;;;;;;;32.83;15.30;;;;;;;8.67;56.73;98852.31;6117088;23;20024;-96
2024/02/07 21:00:40;;;;;;;31.95;15.15;;;;;;;8.74;56.99;98854.72;6116027;23;20001;-96
2024/02/07 21:03:07;;;;;;;27.50;14.82;;;;;;;8.84;56.77;98862.78;6115650;23;20005;-96
2024/02/07 21:05:33;;;;;;;26.65;15.68;;;;;;;8.77;56.46;98840.75;6117228;23;20001;-96
2024/02/07 21:07:58;;;;;;;21.25;12.55;;;;;;;8.93;55.57;98868.41;6116645;23;20027;-96
2024/02/07 21:13:49;;;;;;;26.13;12.37;;;;;;;8.63;56.82;98858.47;6191328;23;20008;-96
2024/02/07 21:16:15;;;;;;;23.83;12.48;;;;;;;8.39;57.40;98850.91;6118173;23;20001;-96
2024/02/07 21:18:40;;;;;;;25.67;12.05;;;;;;;8.35;57.74;98859.75;6117874;23;20084;-94
2024/02/07 21:21:07;;;;;;;25.02;12.23;;;;;;;8.15;58.00;98850.59;6141615;23;20076;-95
2024/02/07 21:23:32;;;;;;;20.15;11.65;;;;;;;8.00;57.86;98850.56;6116902;23;20005;-96
2024/02/07 21:25:58;;;;;;;24.45;11.27;;;;;;;7.98;57.74;98856.19;6140136;23;20001;-96
2024/02/07 21:28:24;;;;;;;20.17;11.80;;;;;;;8.08;58.01;98868.81;6140881;23;20536;-95
2024/02/07 21:30:50;;;;;;;21.35;10.68;;;;;;;8.14;57.75;98865.09;6140980;23;19997;-95
2024/02/07 21:33:15;;;;;;;21.48;11.57;;;;;;;8.08;57.69;98855.41;6119621;23;19993;-96
2024/02/07 21:35:41;;;;;;;20.40;11.57;;;;;;;8.00;57.82;98848.69;6115832;23;20017;-95
2024/02/07 21:38:07;;;;;;;22.08;11.82;;;;;;;8.16;58.14;98871.00;6116965;23;20086;-96
2024/02/07 21:45:58;;;;;;;24.60;11.75;;;;;;;8.24;57.79;98881.19;6206484;22;20021;-96
2024/02/07 21:48:27;;;;;;;;;;;;;;;8.12;58.57;98880.63;6150968;23;20090;-96
2024/02/07 21:50:56;;;;;;;24.70;11.30;;;;;;;7.90;58.66;98859.38;6175388;23;19911;-96
2024/02/07 21:53:27;;;;;;;21.45;11.85;;;;;;;7.84;58.63;98850.53;6127808;23;20032;-96
2024/02/07 21:55:56;;;;;;;24.45;12.18;;;;;;;8.02;58.59;98877.94;6126996;23;20001;-96
2024/02/07 21:58:29;;;;;;;22.35;11.95;;;;;;;7.81;58.79;98843.00;6128934;23;19985;-96